sensor_id;sensor_type;location;lat;lon;timestamp;temperature;humidity
22153;DHT22;11242;50.536;12.688;2023-06-22T00:00:55;15.90;99.90
22153;DHT22;11242;50.536;12.688;2023-06-22T00:03:22;15.90;99.90
22153;DHT22;11242;50.536;12.688;2023-06-22T00:05:48;15.90;99.90
22153;DHT22;11242;50.536;12.688;2023-06-22T00:08:15;15.90;99.90
22153;DHT22;11242;50.536;12.688;2023-06-22T00:10:41;15.90;99.90
22153;DHT22;11242;50.536;12.688;2023-06-22T00:13:08;15.90;99.90
22153;DHT22;11242;50.536;12.688;2023-06-22T00:15:37;16.00;99.90
22153;DHT22;11242;50.536;12.688;2023-06-22T00:18:05;15.90;99.90
22153;DHT22;11242;50.536;12.688;2023-06-22T00:20:31;15.90;99.90
22153;DHT22;11242;50.536;12.688;2023-06-22T00:22:58;15.90;99.90
22153;DHT22;11242;50.536;12.688;2023-06-22T00:25:25;15.90;99.90
22153;DHT22;11242;50.536;12.688;2023-06-22T00:27:50;15.80;99.90
22153;DHT22;11242;50.536;12.688;2023-06-22T00:30:17;15.80;99.90
22153;DHT22;11242;50.536;12.688;2023-06-22T00:32:43;15.70;99.90
22153;DHT22;11242;50.536;12.688;2023-06-22T00:35:09;15.70;99.90
22153;DHT22;11242;50.536;12.688;2023-06-22T00:37:36;15.80;99.90
22153;DHT22;11242;50.536;12.688;2023-06-22T00:40:02;15.80;99.90
22153;DHT22;11242;50.536;12.688;2023-06-22T00:42:30;15.80;99.90
22153;DHT22;11242;50.536;12.688;2023-06-22T00:44:55;15.70;99.90
22153;DHT22;11242;50.536;12.688;2023-06-22T00:47:23;15.60;99.90
22153;DHT22;11242;50.536;12.688;2023-06-22T00:49:49;15.60;99.90
22153;DHT22;11242;50.536;12.688;2023-06-22T00:52:22;15.50;99.90
22153;DHT22;11242;50.536;12.688;2023-06-22T00:54:53;15.40;99.90
22153;DHT22;11242;50.536;12.688;2023-06-22T00:57:20;15.30;99.90
22153;DHT22;11242;50.536;12.688;2023-06-22T00:59:48;15.20;99.90
22153;DHT22;11242;50.536;12.688;2023-06-22T01:02:14;15.20;99.90
22153;DHT22;11242;50.536;12.688;2023-06-22T01:04:40;15.10;99.90
22153;DHT22;11242;50.536;12.688;2023-06-22T01:10:05;15.10;99.90
22153;DHT22;11242;50.536;12.688;2023-06-22T01:12:35;15.10;99.90
22153;DHT22;11242;50.536;12.688;2023-06-22T01:15:14;15.00;99.90
22153;DHT22;11242;50.536;12.688;2023-06-22T01:17:41;15.00;99.90
22153;DHT22;11242;50.536;12.688;2023-06-22T01:20:10;15.00;99.90
22153;DHT22;11242;50.536;12.688;2023-06-22T01:25:31;14.90;99.90
22153;DHT22;11242;50.536;12.688;2023-06-22T01:28:04;14.90;99.90
22153;DHT22;11242;50.536;12.688;2023-06-22T01:30:31;14.90;99.90
22153;DHT22;11242;50.536;12.688;2023-06-22T01:33:01;14.90;99.90
22153;DHT22;11242;50.536;12.688;2023-06-22T01:35:28;14.90;99.90
22153;DHT22;11242;50.536;12.688;2023-06-22T01:37:54;15.00;99.90
22153;DHT22;11242;50.536;12.688;2023-06-22T01:40:21;15.10;99.90
22153;DHT22;11242;50.536;12.688;2023-06-22T01:42:47;15.10;99.90
22153;DHT22;11242;50.536;12.688;2023-06-22T01:45:13;15.10;99.90
22153;DHT22;11242;50.536;12.688;2023-06-22T01:47:40;15.00;99.90
22153;DHT22;11242;50.536;12.688;2023-06-22T01:50:06;15.00;99.90
22153;DHT22;11242;50.536;12.688;2023-06-22T01:52:32;15.00;99.90
22153;DHT22;11242;50.536;12.688;2023-06-22T01:54:59;15.00;99.90
22153;DHT22;11242;50.536;12.688;2023-06-22T01:57:26;15.00;99.90
22153;DHT22;11242;50.536;12.688;2023-06-22T01:59:59;15.00;99.90
22153;DHT22;11242;50.536;12.688;2023-06-22T02:02:29;15.00;99.90
22153;DHT22;11242;50.536;12.688;2023-06-22T02:05:06;14.90;99.90
22153;DHT22;11242;50.536;12.688;2023-06-22T02:07:35;14.80;99.90
22153;DHT22;11242;50.536;12.688;2023-06-22T02:10:05;14.70;99.90
22153;DHT22;11242;50.536;12.688;2023-06-22T02:12:33;14.70;99.90
22153;DHT22;11242;50.536;12.688;2023-06-22T02:15:00;14.60;99.90
22153;DHT22;11242;50.536;12.688;2023-06-22T02:17:26;14.60;99.90
22153;DHT22;11242;50.536;12.688;2023-06-22T02:19:55;14.60;99.90
22153;DHT22;11242;50.536;12.688;2023-06-22T02:22:20;14.60;99.90
22153;DHT22;11242;50.536;12.688;2023-06-22T02:24:46;14.60;99.90
22153;DHT22;11242;50.536;12.688;2023-06-22T02:27:11;14.50;99.90
22153;DHT22;11242;50.536;12.688;2023-06-22T02:29:37;14.50;99.90
22153;DHT22;11242;50.536;12.688;2023-06-22T02:32:03;14.50;99.90
22153;DHT22;11242;50.536;12.688;2023-06-22T02:34:29;14.50;99.90
22153;DHT22;11242;50.536;12.688;2023-06-22T02:36:55;14.50;99.90
22153;DHT22;11242;50.536;12.688;2023-06-22T02:39:21;14.50;99.90
22153;DHT22;11242;50.536;12.688;2023-06-22T02:41:55;14.50;99.90
22153;DHT22;11242;50.536;12.688;2023-06-22T02:44:22;14.50;99.90
22153;DHT22;11242;50.536;12.688;2023-06-22T02:46:48;14.40;99.90
22153;DHT22;11242;50.536;12.688;2023-06-22T02:49:15;14.40;99.90
22153;DHT22;11242;50.536;12.688;2023-06-22T02:51:44;14.40;99.90
22153;DHT22;11242;50.536;12.688;2023-06-22T02:54:14;14.40;99.90
22153;DHT22;11242;50.536;12.688;2023-06-22T02:56:40;14.40;99.90
22153;DHT22;11242;50.536;12.688;2023-06-22T02:59:09;14.40;99.90
22153;DHT22;11242;50.536;12.688;2023-06-22T03:01:38;14.40;99.90
22153;DHT22;11242;50.536;12.688;2023-06-22T03:04:19;14.30;99.90
22153;DHT22;11242;50.536;12.688;2023-06-22T03:06:45;14.40;99.90
22153;DHT22;11242;50.536;12.688;2023-06-22T03:09:16;14.40;99.90
22153;DHT22;11242;50.536;12.688;2023-06-22T03:11:42;14.40;99.90
22153;DHT22;11242;50.536;12.688;2023-06-22T03:14:08;14.50;99.90
22153;DHT22;11242;50.536;12.688;2023-06-22T03:16:34;14.50;99.90
22153;DHT22;11242;50.536;12.688;2023-06-22T03:18:59;14.60;99.90
22153;DHT22;11242;50.536;12.688;2023-06-22T03:21:29;14.70;99.90
22153;DHT22;11242;50.536;12.688;2023-06-22T03:23:55;14.70;99.90
22153;DHT22;11242;50.536;12.688;2023-06-22T03:26:21;14.80;99.90
22153;DHT22;11242;50.536;12.688;2023-06-22T03:28:46;14.80;99.90
22153;DHT22;11242;50.536;12.688;2023-06-22T03:31:12;14.90;99.90
22153;DHT22;11242;50.536;12.688;2023-06-22T03:33:39;14.80;99.90
22153;DHT22;11242;50.536;12.688;2023-06-22T03:36:05;14.90;99.90
22153;DHT22;11242;50.536;12.688;2023-06-22T03:38:31;14.80;99.90
22153;DHT22;11242;50.536;12.688;2023-06-22T03:40:57;14.90;99.90
22153;DHT22;11242;50.536;12.688;2023-06-22T03:43:23;14.90;99.90
22153;DHT22;11242;50.536;12.688;2023-06-22T03:45:48;15.10;99.90
22153;DHT22;11242;50.536;12.688;2023-06-22T03:48:14;15.10;99.90
22153;DHT22;11242;50.536;12.688;2023-06-22T03:50:40;15.20;99.90
22153;DHT22;11242;50.536;12.688;2023-06-22T03:53:05;15.40;99.90
22153;DHT22;11242;50.536;12.688;2023-06-22T03:55:31;15.60;99.90
22153;DHT22;11242;50.536;12.688;2023-06-22T03:57:56;15.70;99.90
22153;DHT22;11242;50.536;12.688;2023-06-22T04:00:25;15.80;99.90
22153;DHT22;11242;50.536;12.688;2023-06-22T04:02:51;15.80;99.90
22153;DHT22;11242;50.536;12.688;2023-06-22T04:05:16;15.80;99.90
22153;DHT22;11242;50.536;12.688;2023-06-22T04:07:44;15.80;99.90
22153;DHT22;11242;50.536;12.688;2023-06-22T04:10:10;16.00;99.90
22153;DHT22;11242;50.536;12.688;2023-06-22T04:12:35;16.30;99.90
22153;DHT22;11242;50.536;12.688;2023-06-22T04:15:01;17.00;99.90
22153;DHT22;11242;50.536;12.688;2023-06-22T04:17:27;17.80;99.90
22153;DHT22;11242;50.536;12.688;2023-06-22T04:19:52;18.70;99.90
22153;DHT22;11242;50.536;12.688;2023-06-22T04:22:18;19.50;99.90
22153;DHT22;11242;50.536;12.688;2023-06-22T04:24:44;19.70;99.90
22153;DHT22;11242;50.536;12.688;2023-06-22T04:27:10;19.60;99.90
22153;DHT22;11242;50.536;12.688;2023-06-22T04:29:35;19.10;99.90
22153;DHT22;11242;50.536;12.688;2023-06-22T04:32:01;18.80;99.90
22153;DHT22;11242;50.536;12.688;2023-06-22T04:34:31;18.30;99.90
22153;DHT22;11242;50.536;12.688;2023-06-22T04:36:57;17.90;99.90
22153;DHT22;11242;50.536;12.688;2023-06-22T04:39:23;17.70;99.90
22153;DHT22;11242;50.536;12.688;2023-06-22T04:41:49;17.70;99.90
22153;DHT22;11242;50.536;12.688;2023-06-22T04:44:17;17.90;99.90
22153;DHT22;11242;50.536;12.688;2023-06-22T04:46:58;18.10;99.90
22153;DHT22;11242;50.536;12.688;2023-06-22T04:49:30;18.50;99.90
22153;DHT22;11242;50.536;12.688;2023-06-22T04:52:12;18.80;99.90
22153;DHT22;11242;50.536;12.688;2023-06-22T04:54:39;19.20;99.90
22153;DHT22;11242;50.536;12.688;2023-06-22T04:57:07;19.10;99.90
22153;DHT22;11242;50.536;12.688;2023-06-22T04:59:38;19.20;99.90
22153;DHT22;11242;50.536;12.688;2023-06-22T05:02:04;19.40;99.90
22153;DHT22;11242;50.536;12.688;2023-06-22T05:04:31;19.90;99.90
22153;DHT22;11242;50.536;12.688;2023-06-22T05:06:58;21.10;99.90
22153;DHT22;11242;50.536;12.688;2023-06-22T05:09:23;22.80;99.90
22153;DHT22;11242;50.536;12.688;2023-06-22T05:11:52;24.50;99.90
22153;DHT22;11242;50.536;12.688;2023-06-22T05:14:18;25.80;99.90
22153;DHT22;11242;50.536;12.688;2023-06-22T05:16:45;24.70;99.90
22153;DHT22;11242;50.536;12.688;2023-06-22T05:19:14;23.40;99.90
22153;DHT22;11242;50.536;12.688;2023-06-22T05:21:39;22.60;99.90
22153;DHT22;11242;50.536;12.688;2023-06-22T05:24:05;22.80;99.90
22153;DHT22;11242;50.536;12.688;2023-06-22T05:26:32;23.60;99.90
22153;DHT22;11242;50.536;12.688;2023-06-22T05:28:58;23.80;99.90
22153;DHT22;11242;50.536;12.688;2023-06-22T05:31:24;23.50;99.90
22153;DHT22;11242;50.536;12.688;2023-06-22T05:33:52;23.20;99.90
22153;DHT22;11242;50.536;12.688;2023-06-22T05:36:18;23.00;99.90
22153;DHT22;11242;50.536;12.688;2023-06-22T05:38:49;22.90;99.90
22153;DHT22;11242;50.536;12.688;2023-06-22T05:41:14;23.50;99.90
22153;DHT22;11242;50.536;12.688;2023-06-22T05:43:40;23.90;99.90
22153;DHT22;11242;50.536;12.688;2023-06-22T05:46:06;23.40;99.90
22153;DHT22;11242;50.536;12.688;2023-06-22T05:48:31;23.50;99.90
22153;DHT22;11242;50.536;12.688;2023-06-22T05:50:58;24.90;99.90
22153;DHT22;11242;50.536;12.688;2023-06-22T05:53:24;25.90;99.90
22153;DHT22;11242;50.536;12.688;2023-06-22T05:55:50;26.60;99.90
22153;DHT22;11242;50.536;12.688;2023-06-22T05:58:16;27.20;99.90
22153;DHT22;11242;50.536;12.688;2023-06-22T06:00:42;27.30;99.90
22153;DHT22;11242;50.536;12.688;2023-06-22T06:03:09;26.70;99.90
22153;DHT22;11242;50.536;12.688;2023-06-22T06:05:35;26.50;99.90
22153;DHT22;11242;50.536;12.688;2023-06-22T06:08:02;26.70;99.90
22153;DHT22;11242;50.536;12.688;2023-06-22T06:10:28;27.30;99.90
22153;DHT22;11242;50.536;12.688;2023-06-22T06:12:55;28.70;99.90
22153;DHT22;11242;50.536;12.688;2023-06-22T06:15:21;29.30;99.90
22153;DHT22;11242;50.536;12.688;2023-06-22T06:17:48;30.80;99.90
22153;DHT22;11242;50.536;12.688;2023-06-22T06:20:14;30.80;96.80
22153;DHT22;11242;50.536;12.688;2023-06-22T06:22:40;31.50;94.20
22153;DHT22;11242;50.536;12.688;2023-06-22T06:25:08;32.60;90.50
22153;DHT22;11242;50.536;12.688;2023-06-22T06:27:34;32.60;84.10
22153;DHT22;11242;50.536;12.688;2023-06-22T06:29:59;31.30;90.20
22153;DHT22;11242;50.536;12.688;2023-06-22T06:32:25;30.40;92.60
22153;DHT22;11242;50.536;12.688;2023-06-22T06:34:50;30.10;93.50
22153;DHT22;11242;50.536;12.688;2023-06-22T06:37:19;30.00;94.10
22153;DHT22;11242;50.536;12.688;2023-06-22T06:39:45;29.70;94.40
22153;DHT22;11242;50.536;12.688;2023-06-22T06:42:10;29.60;95.20
22153;DHT22;11242;50.536;12.688;2023-06-22T06:44:36;29.60;96.30
22153;DHT22;11242;50.536;12.688;2023-06-22T06:47:04;30.00;95.30
22153;DHT22;11242;50.536;12.688;2023-06-22T06:49:29;30.30;94.60
22153;DHT22;11242;50.536;12.688;2023-06-22T06:51:55;30.70;94.20
22153;DHT22;11242;50.536;12.688;2023-06-22T06:54:21;30.70;93.70
22153;DHT22;11242;50.536;12.688;2023-06-22T06:56:47;30.30;94.60
22153;DHT22;11242;50.536;12.688;2023-06-22T06:59:14;30.70;94.70
22153;DHT22;11242;50.536;12.688;2023-06-22T07:01:41;30.90;93.90
22153;DHT22;11242;50.536;12.688;2023-06-22T07:04:07;31.70;93.40
22153;DHT22;11242;50.536;12.688;2023-06-22T07:06:32;32.70;90.50
22153;DHT22;11242;50.536;12.688;2023-06-22T07:08:59;33.00;88.50
22153;DHT22;11242;50.536;12.688;2023-06-22T07:11:25;33.20;85.80
22153;DHT22;11242;50.536;12.688;2023-06-22T07:13:51;33.90;83.60
22153;DHT22;11242;50.536;12.688;2023-06-22T07:16:16;34.00;78.90
22153;DHT22;11242;50.536;12.688;2023-06-22T07:18:42;33.50;80.40
22153;DHT22;11242;50.536;12.688;2023-06-22T07:21:07;34.40;78.50
22153;DHT22;11242;50.536;12.688;2023-06-22T07:23:33;35.20;76.00
22153;DHT22;11242;50.536;12.688;2023-06-22T07:25:59;35.90;74.50
22153;DHT22;11242;50.536;12.688;2023-06-22T07:28:27;37.20;70.20
22153;DHT22;11242;50.536;12.688;2023-06-22T07:30:53;37.60;67.00
22153;DHT22;11242;50.536;12.688;2023-06-22T07:33:19;37.90;64.10
22153;DHT22;11242;50.536;12.688;2023-06-22T07:35:45;37.60;61.00
22153;DHT22;11242;50.536;12.688;2023-06-22T07:38:12;37.60;60.40
22153;DHT22;11242;50.536;12.688;2023-06-22T07:40:38;36.70;61.40
22153;DHT22;11242;50.536;12.688;2023-06-22T07:43:03;36.40;61.10
22153;DHT22;11242;50.536;12.688;2023-06-22T07:45:31;36.20;58.90
22153;DHT22;11242;50.536;12.688;2023-06-22T07:48:00;36.80;56.50
22153;DHT22;11242;50.536;12.688;2023-06-22T07:50:26;37.10;55.70
22153;DHT22;11242;50.536;12.688;2023-06-22T07:52:51;35.90;56.30
22153;DHT22;11242;50.536;12.688;2023-06-22T07:55:18;34.50;57.30
22153;DHT22;11242;50.536;12.688;2023-06-22T07:57:43;33.30;59.50
22153;DHT22;11242;50.536;12.688;2023-06-22T08:00:10;32.10;61.30
22153;DHT22;11242;50.536;12.688;2023-06-22T08:02:41;32.40;62.40
22153;DHT22;11242;50.536;12.688;2023-06-22T08:05:08;33.20;61.00
22153;DHT22;11242;50.536;12.688;2023-06-22T08:07:38;32.20;61.00
22153;DHT22;11242;50.536;12.688;2023-06-22T08:10:10;32.90;60.50
22153;DHT22;11242;50.536;12.688;2023-06-22T08:12:36;32.80;60.40
22153;DHT22;11242;50.536;12.688;2023-06-22T08:15:02;32.70;62.80
22153;DHT22;11242;50.536;12.688;2023-06-22T08:17:28;33.80;59.50
22153;DHT22;11242;50.536;12.688;2023-06-22T08:19:53;33.30;60.10
22153;DHT22;11242;50.536;12.688;2023-06-22T08:22:19;32.70;60.10
22153;DHT22;11242;50.536;12.688;2023-06-22T08:24:45;32.70;60.60
22153;DHT22;11242;50.536;12.688;2023-06-22T08:27:11;33.20;59.60
22153;DHT22;11242;50.536;12.688;2023-06-22T08:29:41;34.10;58.60
22153;DHT22;11242;50.536;12.688;2023-06-22T08:32:09;34.70;57.60
22153;DHT22;11242;50.536;12.688;2023-06-22T08:34:35;34.60;57.10
22153;DHT22;11242;50.536;12.688;2023-06-22T08:37:01;33.40;58.70
22153;DHT22;11242;50.536;12.688;2023-06-22T08:39:26;33.40;59.70
22153;DHT22;11242;50.536;12.688;2023-06-22T08:41:53;33.40;60.50
22153;DHT22;11242;50.536;12.688;2023-06-22T08:44:19;33.90;59.20
22153;DHT22;11242;50.536;12.688;2023-06-22T08:46:46;33.70;57.80
22153;DHT22;11242;50.536;12.688;2023-06-22T08:49:11;33.60;58.70
22153;DHT22;11242;50.536;12.688;2023-06-22T08:51:37;34.30;58.80
22153;DHT22;11242;50.536;12.688;2023-06-22T08:54:02;35.10;58.30
22153;DHT22;11242;50.536;12.688;2023-06-22T08:56:28;35.60;54.80
22153;DHT22;11242;50.536;12.688;2023-06-22T08:58:53;35.20;57.30
22153;DHT22;11242;50.536;12.688;2023-06-22T09:01:19;34.70;57.20
22153;DHT22;11242;50.536;12.688;2023-06-22T09:03:45;35.90;55.40
22153;DHT22;11242;50.536;12.688;2023-06-22T09:06:20;35.70;55.50
22153;DHT22;11242;50.536;12.688;2023-06-22T09:08:45;35.80;54.80
22153;DHT22;11242;50.536;12.688;2023-06-22T09:11:12;35.50;54.30
22153;DHT22;11242;50.536;12.688;2023-06-22T09:13:38;34.70;56.80
22153;DHT22;11242;50.536;12.688;2023-06-22T09:16:03;35.00;55.40
22153;DHT22;11242;50.536;12.688;2023-06-22T09:18:29;35.90;54.80
22153;DHT22;11242;50.536;12.688;2023-06-22T09:20:54;36.90;53.60
22153;DHT22;11242;50.536;12.688;2023-06-22T09:23:20;38.00;51.40
22153;DHT22;11242;50.536;12.688;2023-06-22T09:25:46;36.90;52.60
22153;DHT22;11242;50.536;12.688;2023-06-22T09:28:13;35.10;52.70
22153;DHT22;11242;50.536;12.688;2023-06-22T09:30:39;34.90;54.20
22153;DHT22;11242;50.536;12.688;2023-06-22T09:33:05;35.20;53.30
22153;DHT22;11242;50.536;12.688;2023-06-22T09:35:30;35.00;54.80
22153;DHT22;11242;50.536;12.688;2023-06-22T09:37:56;34.50;54.90
22153;DHT22;11242;50.536;12.688;2023-06-22T09:40:22;34.30;54.70
22153;DHT22;11242;50.536;12.688;2023-06-22T09:42:47;32.90;55.50
22153;DHT22;11242;50.536;12.688;2023-06-22T09:45:13;31.20;56.40
22153;DHT22;11242;50.536;12.688;2023-06-22T09:47:38;29.80;58.90
22153;DHT22;11242;50.536;12.688;2023-06-22T09:50:05;29.10;60.20
22153;DHT22;11242;50.536;12.688;2023-06-22T09:52:31;28.60;62.20
22153;DHT22;11242;50.536;12.688;2023-06-22T09:54:56;28.40;63.40
22153;DHT22;11242;50.536;12.688;2023-06-22T09:57:22;28.80;64.10
22153;DHT22;11242;50.536;12.688;2023-06-22T09:59:47;29.20;62.80
22153;DHT22;11242;50.536;12.688;2023-06-22T10:02:13;29.00;62.10
22153;DHT22;11242;50.536;12.688;2023-06-22T10:04:39;29.00;63.80
22153;DHT22;11242;50.536;12.688;2023-06-22T10:07:05;29.20;62.90
22153;DHT22;11242;50.536;12.688;2023-06-22T10:09:31;29.30;64.60
22153;DHT22;11242;50.536;12.688;2023-06-22T10:11:57;29.20;63.10
22153;DHT22;11242;50.536;12.688;2023-06-22T10:14:22;29.30;64.70
22153;DHT22;11242;50.536;12.688;2023-06-22T10:16:51;29.30;63.20
22153;DHT22;11242;50.536;12.688;2023-06-22T10:19:17;29.40;62.90
22153;DHT22;11242;50.536;12.688;2023-06-22T10:21:43;29.00;63.30
22153;DHT22;11242;50.536;12.688;2023-06-22T10:24:08;29.00;63.00
22153;DHT22;11242;50.536;12.688;2023-06-22T10:26:35;29.20;63.30
22153;DHT22;11242;50.536;12.688;2023-06-22T10:29:02;29.00;64.60
22153;DHT22;11242;50.536;12.688;2023-06-22T10:31:28;29.30;62.90
22153;DHT22;11242;50.536;12.688;2023-06-22T10:33:54;29.60;61.50
22153;DHT22;11242;50.536;12.688;2023-06-22T10:36:20;29.90;62.00
22153;DHT22;11242;50.536;12.688;2023-06-22T10:38:46;29.90;62.40
22153;DHT22;11242;50.536;12.688;2023-06-22T10:41:13;29.70;62.90
22153;DHT22;11242;50.536;12.688;2023-06-22T10:43:39;29.40;63.50
22153;DHT22;11242;50.536;12.688;2023-06-22T10:46:04;29.50;63.60
22153;DHT22;11242;50.536;12.688;2023-06-22T10:48:30;29.70;61.70
22153;DHT22;11242;50.536;12.688;2023-06-22T10:50:55;29.90;62.30
22153;DHT22;11242;50.536;12.688;2023-06-22T10:53:21;30.30;62.50
22153;DHT22;11242;50.536;12.688;2023-06-22T10:55:50;30.40;62.80
22153;DHT22;11242;50.536;12.688;2023-06-22T10:58:18;30.50;60.60
22153;DHT22;11242;50.536;12.688;2023-06-22T11:00:44;30.40;62.00
22153;DHT22;11242;50.536;12.688;2023-06-22T11:03:09;30.30;60.20
22153;DHT22;11242;50.536;12.688;2023-06-22T11:05:35;30.20;61.30
22153;DHT22;11242;50.536;12.688;2023-06-22T11:08:01;30.60;61.60
22153;DHT22;11242;50.536;12.688;2023-06-22T11:10:26;32.60;58.30
22153;DHT22;11242;50.536;12.688;2023-06-22T11:12:52;31.40;58.90
22153;DHT22;11242;50.536;12.688;2023-06-22T11:15:18;30.40;60.50
22153;DHT22;11242;50.536;12.688;2023-06-22T11:17:44;29.90;62.30
22153;DHT22;11242;50.536;12.688;2023-06-22T11:20:10;30.00;63.50
22153;DHT22;11242;50.536;12.688;2023-06-22T11:22:39;30.30;61.50
22153;DHT22;11242;50.536;12.688;2023-06-22T11:25:06;30.50;63.10
22153;DHT22;11242;50.536;12.688;2023-06-22T11:27:31;30.50;64.00
22153;DHT22;11242;50.536;12.688;2023-06-22T11:29:57;30.30;63.70
22153;DHT22;11242;50.536;12.688;2023-06-22T11:32:23;30.10;65.40
22153;DHT22;11242;50.536;12.688;2023-06-22T11:34:49;30.40;64.60
22153;DHT22;11242;50.536;12.688;2023-06-22T11:37:14;30.80;62.60
22153;DHT22;11242;50.536;12.688;2023-06-22T11:39:41;31.10;63.20
22153;DHT22;11242;50.536;12.688;2023-06-22T11:42:07;31.30;62.90
22153;DHT22;11242;50.536;12.688;2023-06-22T11:44:33;31.10;63.50
22153;DHT22;11242;50.536;12.688;2023-06-22T11:46:59;31.00;62.10
22153;DHT22;11242;50.536;12.688;2023-06-22T11:49:26;30.60;65.50
22153;DHT22;11242;50.536;12.688;2023-06-22T11:51:52;30.30;66.00
22153;DHT22;11242;50.536;12.688;2023-06-22T11:54:18;30.20;65.50
22153;DHT22;11242;50.536;12.688;2023-06-22T11:56:43;30.20;64.50
22153;DHT22;11242;50.536;12.688;2023-06-22T11:59:09;30.40;64.00
22153;DHT22;11242;50.536;12.688;2023-06-22T12:01:34;30.30;63.70
22153;DHT22;11242;50.536;12.688;2023-06-22T12:04:03;30.30;63.20
22153;DHT22;11242;50.536;12.688;2023-06-22T12:06:31;30.50;64.30
22153;DHT22;11242;50.536;12.688;2023-06-22T12:08:57;30.70;62.90
22153;DHT22;11242;50.536;12.688;2023-06-22T12:11:23;30.90;64.20
22153;DHT22;11242;50.536;12.688;2023-06-22T12:13:48;30.90;63.30
22153;DHT22;11242;50.536;12.688;2023-06-22T12:16:14;31.30;62.40
22153;DHT22;11242;50.536;12.688;2023-06-22T12:18:39;31.50;61.40
22153;DHT22;11242;50.536;12.688;2023-06-22T12:21:05;30.80;62.70
22153;DHT22;11242;50.536;12.688;2023-06-22T12:23:31;30.20;64.00
22153;DHT22;11242;50.536;12.688;2023-06-22T12:25:56;29.90;64.50
22153;DHT22;11242;50.536;12.688;2023-06-22T12:28:22;30.30;65.20
22153;DHT22;11242;50.536;12.688;2023-06-22T12:30:49;30.30;64.10
22153;DHT22;11242;50.536;12.688;2023-06-22T12:33:14;30.30;65.30
22153;DHT22;11242;50.536;12.688;2023-06-22T12:35:40;30.40;65.60
22153;DHT22;11242;50.536;12.688;2023-06-22T12:38:08;30.50;63.20
22153;DHT22;11242;50.536;12.688;2023-06-22T12:40:34;30.40;64.60
22153;DHT22;11242;50.536;12.688;2023-06-22T12:43:00;30.20;64.90
22153;DHT22;11242;50.536;12.688;2023-06-22T12:45:27;30.00;66.00
22153;DHT22;11242;50.536;12.688;2023-06-22T12:47:54;29.90;66.10
22153;DHT22;11242;50.536;12.688;2023-06-22T12:50:20;30.20;66.80
22153;DHT22;11242;50.536;12.688;2023-06-22T12:52:45;30.50;66.00
22153;DHT22;11242;50.536;12.688;2023-06-22T12:55:11;30.50;64.70
22153;DHT22;11242;50.536;12.688;2023-06-22T12:57:37;30.40;63.40
22153;DHT22;11242;50.536;12.688;2023-06-22T13:00:02;30.20;66.20
22153;DHT22;11242;50.536;12.688;2023-06-22T13:02:30;30.00;64.90
22153;DHT22;11242;50.536;12.688;2023-06-22T13:04:55;29.70;66.20
22153;DHT22;11242;50.536;12.688;2023-06-22T13:07:21;29.80;66.50
22153;DHT22;11242;50.536;12.688;2023-06-22T13:09:47;30.10;65.40
22153;DHT22;11242;50.536;12.688;2023-06-22T13:12:16;30.20;63.00
22153;DHT22;11242;50.536;12.688;2023-06-22T13:14:42;30.30;63.20
22153;DHT22;11242;50.536;12.688;2023-06-22T13:17:08;30.30;64.00
22153;DHT22;11242;50.536;12.688;2023-06-22T13:19:34;30.40;63.80
22153;DHT22;11242;50.536;12.688;2023-06-22T13:22:00;30.30;66.30
22153;DHT22;11242;50.536;12.688;2023-06-22T13:24:26;30.30;64.60
22153;DHT22;11242;50.536;12.688;2023-06-22T13:26:51;30.20;64.20
22153;DHT22;11242;50.536;12.688;2023-06-22T13:29:17;29.90;64.80
22153;DHT22;11242;50.536;12.688;2023-06-22T13:31:42;29.80;64.80
22153;DHT22;11242;50.536;12.688;2023-06-22T13:34:08;29.90;65.10
22153;DHT22;11242;50.536;12.688;2023-06-22T13:36:33;30.20;64.50
22153;DHT22;11242;50.536;12.688;2023-06-22T13:38:59;30.20;63.70
22153;DHT22;11242;50.536;12.688;2023-06-22T13:41:24;30.30;65.10
22153;DHT22;11242;50.536;12.688;2023-06-22T13:43:51;30.20;63.80
22153;DHT22;11242;50.536;12.688;2023-06-22T13:46:16;30.10;65.30
22153;DHT22;11242;50.536;12.688;2023-06-22T13:48:42;30.30;63.60
22153;DHT22;11242;50.536;12.688;2023-06-22T13:51:07;30.30;64.30
22153;DHT22;11242;50.536;12.688;2023-06-22T13:53:33;30.60;64.40
22153;DHT22;11242;50.536;12.688;2023-06-22T13:55:59;30.80;62.90
22153;DHT22;11242;50.536;12.688;2023-06-22T13:58:27;31.00;63.90
22153;DHT22;11242;50.536;12.688;2023-06-22T14:00:53;31.30;61.50
22153;DHT22;11242;50.536;12.688;2023-06-22T14:03:18;31.50;61.00
22153;DHT22;11242;50.536;12.688;2023-06-22T14:05:44;31.60;61.00
22153;DHT22;11242;50.536;12.688;2023-06-22T14:08:10;31.60;60.90
22153;DHT22;11242;50.536;12.688;2023-06-22T14:10:35;31.60;60.40
22153;DHT22;11242;50.536;12.688;2023-06-22T14:13:01;31.20;61.20
22153;DHT22;11242;50.536;12.688;2023-06-22T14:15:26;31.20;61.20
22153;DHT22;11242;50.536;12.688;2023-06-22T14:17:52;31.40;61.50
22153;DHT22;11242;50.536;12.688;2023-06-22T14:20:18;31.70;61.70
22153;DHT22;11242;50.536;12.688;2023-06-22T14:22:43;31.90;61.60
22153;DHT22;11242;50.536;12.688;2023-06-22T14:25:09;31.80;60.80
22153;DHT22;11242;50.536;12.688;2023-06-22T14:27:35;31.70;60.60
22153;DHT22;11242;50.536;12.688;2023-06-22T14:30:00;31.40;59.90
22153;DHT22;11242;50.536;12.688;2023-06-22T14:32:27;31.50;59.30
22153;DHT22;11242;50.536;12.688;2023-06-22T14:34:56;31.10;59.90
22153;DHT22;11242;50.536;12.688;2023-06-22T14:37:22;31.00;61.60
22153;DHT22;11242;50.536;12.688;2023-06-22T14:39:48;30.80;60.70
22153;DHT22;11242;50.536;12.688;2023-06-22T14:42:15;30.80;61.50
22153;DHT22;11242;50.536;12.688;2023-06-22T14:44:40;30.80;61.90
22153;DHT22;11242;50.536;12.688;2023-06-22T14:47:06;31.00;61.30
22153;DHT22;11242;50.536;12.688;2023-06-22T14:49:32;31.30;60.80
22153;DHT22;11242;50.536;12.688;2023-06-22T14:52:04;31.60;60.60
22153;DHT22;11242;50.536;12.688;2023-06-22T14:54:32;31.50;60.40
22153;DHT22;11242;50.536;12.688;2023-06-22T14:56:58;31.30;61.40
22153;DHT22;11242;50.536;12.688;2023-06-22T14:59:23;30.90;62.20
22153;DHT22;11242;50.536;12.688;2023-06-22T15:01:49;30.70;63.10
22153;DHT22;11242;50.536;12.688;2023-06-22T15:04:15;30.60;62.90
22153;DHT22;11242;50.536;12.688;2023-06-22T15:06:41;30.50;63.50
22153;DHT22;11242;50.536;12.688;2023-06-22T15:09:07;30.50;63.50
22153;DHT22;11242;50.536;12.688;2023-06-22T15:11:33;30.60;63.50
22153;DHT22;11242;50.536;12.688;2023-06-22T15:13:59;30.60;63.80
22153;DHT22;11242;50.536;12.688;2023-06-22T15:16:26;30.40;64.20